If you wish to contribute or participate in the discussions about articles you are invited to join SKYbrary as a registered user

 Actions

Landivisiau Air Base

From SKYbrary Wiki

LFRJ
Airport
ICAO: LFRJ
Summary
Name Landivisiau Air Base
Region Europe
Territory France FR.gif
Location , Bretagne
Serving Landivisiau
Elevation 106.07 m
348 ft
348 ft106.07 m
Type medium airport
Coordinates 48° 31' 48.93" N, 4° 9' 5.91" W
Runways
Designator Length Width Surface ROPS
8/26 2700 m8,858.268 ft
45 m147.638 ft
CON /


METAR
Observation LFRJ 222230Z AUTO 05003KT 0500 0350 R26/0400N R08/1000D FG FEW001 08/08 Q1019
Station Landivisiau
Date/Time 22 October 2019 22:30:00
Wind direction 50°
Wind speed 03 kts
Lowest cloud amount few clouds
Temperature 26°C
Dew point 0°C
Humidity 18%
QNH 1019 hPa
Weather condition n/a